Time;durP1;ratioP1;P1;durP2;ratioP2;P2;SDS_P1;SDS_P2;PMS_P1;PMS_P2;Temp;Humidity;BMP_temperature;BMP_pressure;BME280_temperature;BME280_humidity;BME280_pressure;Samples;Min_cycle;Max_cycle;Signal;HPM_P1;HPM_P2
2024/01/03 00:00:22;;;;;;;4.35;1.40;;;11.00;1.00;;;;;;5062048;28;20033;-61
2024/01/03 00:02:49;;;;;;;6.80;1.23;;;11.10;1.00;;;;;;5062250;28;20045;-61
2024/01/03 00:05:14;;;;;;;3.08;1.23;;;11.00;1.00;;;;;;5059264;28;20032;-62
2024/01/03 00:07:41;;;;;;;3.20;1.17;;;11.00;1.00;;;;;;5063422;28;20028;-61
2024/01/03 00:10:38;;;;;;;1.75;0.52;;;11.00;1.00;;;;;;5061252;28;20123;-61
2024/01/03 00:13:23;;;;;;;3.67;1.40;;;11.00;1.00;;;;;;5059383;28;20110;-61
2024/01/03 00:16:19;;;;;;;3.83;1.15;;;11.00;1.00;;;;;;5044650;28;20040;-62
2024/01/03 00:18:53;;;;;;;5.38;1.67;;;11.00;1.00;;;;;;5059229;28;20466;-63
2024/01/03 00:21:25;;;;;;;3.78;1.40;;;11.00;1.00;;;;;;5059325;28;20562;-62
2024/01/03 00:23:52;;;;;;;4.82;1.58;;;11.10;1.00;;;;;;5057871;28;20044;-62
2024/01/03 00:26:19;;;;;;;6.28;1.80;;;11.10;1.00;;;;;;5059069;28;20041;-62
2024/01/03 00:28:45;;;;;;;5.18;1.55;;;11.10;99.90;;;;;;5062267;28;20453;-65
2024/01/03 00:31:37;;;;;;;5.43;1.65;;;11.10;99.90;;;;;;5043655;28;20517;-61
2024/01/03 00:34:13;;;;;;;4.78;1.60;;;11.10;1.00;;;;;;5058229;28;20041;-64
2024/01/03 00:36:38;;;;;;;5.03;1.45;;;11.00;1.00;;;;;;5057874;28;20577;-64
2024/01/03 00:39:04;;;;;;;4.35;1.27;;;10.80;1.00;;;;;;5061313;28;20049;-64
2024/01/03 00:41:30;;;;;;;3.88;1.50;;;10.80;1.00;;;;;;5061366;28;20194;-65
2024/01/03 00:43:55;;;;;;;3.72;1.30;;;10.70;1.00;;;;;;5059866;28;20153;-64
2024/01/03 00:46:21;;;;;;;3.78;1.30;;;10.70;1.00;;;;;;5060803;28;20044;-64
2024/01/03 00:48:46;;;;;;;5.38;1.30;;;10.80;1.00;;;;;;5058907;28;20044;-65
2024/01/03 00:51:12;;;;;;;4.63;1.40;;;10.80;1.00;;;;;;5059273;28;20349;-66
2024/01/03 00:53:38;;;;;;;4.90;1.17;;;10.80;1.00;;;;;;5060747;28;20029;-65
2024/01/03 00:56:04;;;;;;;4.55;1.30;;;10.80;1.00;;;;;;5061449;28;20028;-64
2024/01/03 00:58:29;;;;;;;1.38;0.28;;;10.80;1.00;;;;;;5060594;28;20044;-64
2024/01/03 01:00:55;;;;;;;0.00;0.00;;;10.80;1.00;;;;;;5043390;28;20048;-64
2024/01/03 01:03:20;;;;;;;5.43;1.35;;;10.80;1.00;;;;;;5059622;28;20044;-65
2024/01/03 01:05:46;;;;;;;2.95;1.30;;;10.80;1.00;;;;;;5059232;28;20028;-65
2024/01/03 01:08:12;;;;;;;2.25;0.70;;;10.80;1.00;;;;;;5058050;28;20456;-64
2024/01/03 01:10:37;;;;;;;0.00;0.00;;;10.80;1.00;;;;;;5060648;28;20044;-65
2024/01/03 01:13:03;;;;;;;6.32;1.23;;;10.80;1.00;;;;;;5059780;28;20040;-65
2024/01/03 01:15:29;;;;;;;3.95;1.42;;;10.80;1.00;;;;;;5061029;28;20029;-65
2024/01/03 01:17:54;;;;;;;4.47;1.42;;;10.90;1.00;;;;;;5041010;28;20040;-64
2024/01/03 01:20:20;;;;;;;5.55;1.60;;;10.70;1.00;;;;;;5057499;28;20045;-65
2024/01/03 01:22:46;;;;;;;3.70;1.33;;;10.70;1.00;;;;;;5041410;28;20115;-65
2024/01/03 01:25:11;;;;;;;4.60;1.42;;;10.70;1.00;;;;;;5058816;28;20086;-65
2024/01/03 01:27:37;;;;;;;4.47;1.30;;;;;;;;;;5057657;28;20091;-65
2024/01/03 01:30:04;;;;;;;3.65;1.30;;;;;;;;;;5057218;28;20510;-65
2024/01/03 01:32:30;;;;;;;4.97;1.50;;;;;;;;;;5058345;28;20102;-66
2024/01/03 01:34:56;;;;;;;3.85;1.27;;;;;;;;;;5059229;28;20770;-65
2024/01/03 01:37:22;;;;;;;5.55;1.52;;;;;;;;;;5057886;28;20440;-64
2024/01/03 01:39:48;;;;;;;5.80;1.50;;;;;;;;;;5058611;28;20037;-64
2024/01/03 01:42:14;;;;;;;3.78;1.30;;;;;;;;;;5058643;28;20130;-62
2024/01/03 01:44:40;;;;;;;4.72;1.50;;;;;;;;;;5059443;28;20040;-63
2024/01/03 01:47:08;;;;;;;2.70;1.10;;;;;;;;;;5057388;28;20074;-63
2024/01/03 01:49:34;;;;;;;4.07;1.52;;;;;;;;;;5061708;28;20087;-62
2024/01/03 01:52:00;;;;;;;3.92;1.40;;;;;;;;;;5059652;28;20032;-61
2024/01/03 01:54:26;;;;;;;5.22;1.35;;;;;;;;;;5057546;28;20028;-60
2024/01/03 01:56:53;;;;;;;4.07;1.13;;;;;;;;;;5059752;28;20040;-63
2024/01/03 01:59:20;;;;;;;0.55;0.20;;;;;;;;;;5059856;28;20032;-62
2024/01/03 02:01:46;;;;;;;0.00;0.00;;;;;;;;;;5059445;28;20541;-60
2024/01/03 02:04:12;;;;;;;0.10;0.00;;;;;;;;;;5040245;28;20032;-60
2024/01/03 02:06:38;;;;;;;0.52;0.20;;;;;;;;;;5060943;28;20035;-60
2024/01/03 02:09:04;;;;;;;3.22;1.10;;;;;;;;;;5059858;28;20396;-60
2024/01/03 02:11:30;;;;;;;2.92;1.08;;;;;;;;;;5061092;28;20431;-61
2024/01/03 02:13:56;;;;;;;0.00;0.00;;;;;;;;;;5060426;28;20037;-62
2024/01/03 02:16:22;;;;;;;0.00;0.00;;;;;;;;;;5056848;28;20532;-60
2024/01/03 02:18:49;;;;;;;0.00;0.00;;;;;;;;;;5059199;28;20036;-62
2024/01/03 02:21:16;;;;;;;4.10;1.33;;;;;;;;;;5057116;28;20076;-62
2024/01/03 02:23:42;;;;;;;5.60;1.30;;;;;;;;;;5041064;28;20033;-62
2024/01/03 02:26:08;;;;;;;5.97;1.42;;;10.60;8.40;;;;;;5057246;28;20115;-61
2024/01/03 02:28:34;;;;;;;6.68;1.45;;;10.60;15.60;;;;;;5058957;28;20143;-59
2024/01/03 02:31:00;;;;;;;5.55;1.13;;;10.50;90.70;;;;;;5057592;28;20047;-62
2024/01/03 02:33:26;;;;;;;4.82;1.52;;;10.40;99.90;;;;;;5059698;28;20610;-60
2024/01/03 02:35:52;;;;;;;7.38;1.60;;;10.40;99.90;;;;;;5059047;28;20086;-60
2024/01/03 02:38:17;;;;;;;5.35;1.25;;;10.40;99.90;;;;;;5059039;28;20116;-61
2024/01/03 02:40:44;;;;;;;7.15;1.50;;;10.40;99.90;;;;;;5059252;28;20205;-61
2024/01/03 02:43:10;;;;;;;5.57;1.33;;;10.40;99.90;;;;;;5057821;28;20062;-60
2024/01/03 02:45:36;;;;;;;5.25;1.33;;;10.40;99.90;;;;;;5060249;28;20039;-61
2024/01/03 02:48:02;;;;;;;4.72;1.08;;;10.40;88.70;;;;;;5057068;28;20049;-60
2024/01/03 02:50:27;;;;;;;5.72;1.40;;;10.40;34.20;;;;;;5059153;28;20064;-60
2024/01/03 02:52:53;;;;;;;4.35;1.13;;;10.40;1.00;;;;;;5059195;28;20044;-64
2024/01/03 02:55:19;;;;;;;3.95;0.80;;;10.50;1.00;;;;;;5058097;28;20024;-62
2024/01/03 02:57:44;;;;;;;3.67;1.10;;;10.50;1.00;;;;;;5060802;28;20044;-61
2024/01/03 03:00:11;;;;;;;2.20;0.85;;;10.50;1.00;;;;;;5056067;28;20064;-63
2024/01/03 03:02:36;;;;;;;2.22;0.75;;;10.50;1.00;;;;;;5059544;28;20095;-65
2024/01/03 03:05:02;;;;;;;4.53;1.15;;;10.50;1.00;;;;;;5062543;28;20024;-64
2024/01/03 03:07:28;;;;;;;0.77;0.45;;;10.50;1.00;;;;;;5064047;28;20036;-65
2024/01/03 03:09:53;;;;;;;0.00;0.00;;;10.50;1.00;;;;;;5064176;28;20326;-65
2024/01/03 03:12:19;;;;;;;0.93;0.32;;;10.60;1.00;;;;;;5062073;28;20462;-65
2024/01/03 03:14:44;;;;;;;1.98;0.85;;;10.60;1.00;;;;;;5045567;28;20036;-64
2024/01/03 03:17:10;;;;;;;1.15;0.50;;;10.60;1.00;;;;;;5060866;28;20040;-64
2024/01/03 03:19:35;;;;;;;2.92;1.00;;;10.60;1.00;;;;;;5064259;28;20518;-64
2024/01/03 03:22:01;;;;;;;2.00;0.73;;;10.60;1.00;;;;;;5062156;28;20506;-64
2024/01/03 03:24:27;;;;;;;1.95;0.80;;;10.60;1.00;;;;;;5063616;28;20036;-64
2024/01/03 03:26:53;;;;;;;2.72;0.90;;;10.60;1.00;;;;;;5064195;28;20032;-64
2024/01/03 03:29:19;;;;;;;0.60;0.40;;;10.50;1.00;;;;;;5059899;28;20028;-65
2024/01/03 03:31:44;;;;;;;2.67;0.82;;;10.60;99.90;;;;;;5063831;28;20234;-65
2024/01/03 03:34:10;;;;;;;0.00;0.00;;;10.60;99.90;;;;;;5059972;28;20471;-65
2024/01/03 03:36:35;;;;;;;0.00;0.00;;;10.60;99.90;;;;;;5042967;28;20028;-64
2024/01/03 03:39:01;;;;;;;0.52;0.17;;;10.60;99.90;;;;;;5045800;28;20033;-65
2024/01/03 03:41:27;;;;;;;4.18;1.20;;;10.60;99.90;;;;;;5062327;28;20043;-65
2024/01/03 03:43:52;;;;;;;2.60;1.10;;;10.60;99.90;;;;;;5061113;28;20037;-65
2024/01/03 03:46:18;;;;;;;3.67;1.20;;;10.60;99.90;;;;;;5061823;28;20045;-65
2024/01/03 03:48:44;;;;;;;3.92;1.42;;;10.60;99.90;;;;;;5061392;28;20113;-65
2024/01/03 03:51:10;;;;;;;4.75;1.17;;;10.60;99.90;;;;;;5059935;28;20576;-65
2024/01/03 03:53:36;;;;;;;4.03;1.20;;;10.60;99.90;;;;;;5062761;28;20025;-65
2024/01/03 03:56:01;;;;;;;3.88;1.30;;;10.60;99.90;;;;;;5060506;28;20415;-64
2024/01/03 03:58:27;;;;;;;3.83;1.08;;;10.60;99.90;;;;;;5063282;28;20029;-65
2024/01/03 04:00:52;;;;;;;1.92;0.60;;;10.50;99.90;;;;;;5063427;28;20029;-65
2024/01/03 04:03:18;;;;;;;1.25;0.45;;;10.50;99.90;;;;;;5061700;28;20441;-65
2024/01/03 04:05:44;;;;;;;4.45;1.33;;;10.40;1.00;;;;;;5061665;28;20049;-65
2024/01/03 04:08:09;;;;;;;4.72;1.30;;;10.40;1.00;;;;;;5062028;28;20036;-65
2024/01/03 04:10:35;;;;;;;4.00;1.08;;;10.40;1.00;;;;;;5044111;28;20515;-65
2024/01/03 04:13:01;;;;;;;5.75;1.10;;;10.40;1.00;;;;;;5062626;28;20120;-65
2024/01/03 04:15:26;;;;;;;5.07;1.35;;;10.50;1.00;;;;;;5062980;28;20506;-64
2024/01/03 04:17:52;;;;;;;3.33;0.98;;;10.40;1.00;;;;;;5062215;28;20036;-65
2024/01/03 04:20:17;;;;;;;2.45;0.40;;;10.40;1.00;;;;;;5061357;28;20032;-65
2024/01/03 04:22:45;;;;;;;0.00;0.00;;;10.30;1.00;;;;;;5062799;28;20512;-65
2024/01/03 04:25:11;;;;;;;0.00;0.00;;;10.30;1.00;;;;;;5061317;28;20196;-65
2024/01/03 04:27:37;;;;;;;0.10;0.10;;;10.30;1.00;;;;;;5060384;28;20026;-64
2024/01/03 04:30:03;;;;;;;1.92;0.90;;;10.30;1.00;;;;;;5060625;28;20056;-65
2024/01/03 04:32:30;;;;;;;2.03;0.90;;;10.30;1.00;;;;;;5061219;28;20441;-64
2024/01/03 04:34:55;;;;;;;3.20;0.77;;;10.20;1.00;;;;;;5059893;28;20029;-64
2024/01/03 04:37:21;;;;;;;4.13;1.20;;;10.30;1.00;;;;;;5060270;28;20036;-64
2024/01/03 04:39:46;;;;;;;2.70;1.00;;;10.30;1.00;;;;;;5061279;28;20021;-65
2024/01/03 04:42:12;;;;;;;1.85;0.90;;;10.30;1.00;;;;;;5061057;28;20131;-65
2024/01/03 04:44:38;;;;;;;2.72;0.90;;;10.40;1.00;;;;;;5041988;28;20036;-65
2024/01/03 04:47:04;;;;;;;2.60;0.90;;;10.40;1.00;;;;;;5060761;28;20111;-65
2024/01/03 04:49:29;;;;;;;2.70;0.88;;;10.50;1.00;;;;;;5059795;28;20540;-64
2024/01/03 04:51:55;;;;;;;1.65;0.80;;;10.40;1.00;;;;;;5042420;28;20093;-65
2024/01/03 04:54:21;;;;;;;0.00;0.00;;;10.40;99.90;;;;;;5061074;28;20356;-65
2024/01/03 04:56:47;;;;;;;1.63;0.70;;;10.40;99.90;;;;;;5043283;28;20120;-65
2024/01/03 04:59:13;;;;;;;2.72;0.90;;;10.50;99.90;;;;;;5061015;28;20035;-64
2024/01/03 05:01:42;;;;;;;2.58;1.10;;;10.50;1.00;;;;;;5061282;28;20040;-65
2024/01/03 05:04:08;;;;;;;3.80;1.00;;;10.50;99.90;;;;;;5058880;28;20036;-65
2024/01/03 05:06:35;;;;;;;2.55;0.82;;;10.50;99.90;;;;;;5060346;28;20079;-65
2024/01/03 05:09:00;;;;;;;2.53;0.93;;;10.50;99.90;;;;;;5043849;28;20059;-64
2024/01/03 05:11:26;;;;;;;2.17;0.80;;;10.50;1.00;;;;;;5061094;28;20044;-63
2024/01/03 05:13:52;;;;;;;3.35;1.02;;;10.50;99.90;;;;;;5061594;28;20085;-61
2024/01/03 05:16:18;;;;;;;1.83;0.70;;;10.50;99.90;;;;;;5061075;28;20352;-62
2024/01/03 05:18:43;;;;;;;2.33;0.80;;;10.50;99.90;;;;;;5062563;28;20074;-62
2024/01/03 05:21:09;;;;;;;3.10;0.60;;;10.50;99.90;;;;;;5059962;28;20071;-61
2024/01/03 05:23:34;;;;;;;2.67;0.88;;;10.50;99.90;;;;;;5060997;28;20425;-63
2024/01/03 05:26:00;;;;;;;1.10;0.50;;;10.50;99.90;;;;;;5060574;28;20123;-62
2024/01/03 05:28:26;;;;;;;1.38;0.47;;;10.50;99.90;;;;;;5059974;28;20027;-61
2024/01/03 05:30:51;;;;;;;1.77;0.60;;;10.50;99.90;;;;;;5059745;28;20116;-63
2024/01/03 05:33:17;;;;;;;2.33;0.68;;;10.50;99.90;;;;;;5058846;28;20102;-61
2024/01/03 05:35:43;;;;;;;2.10;0.75;;;10.50;99.90;;;;;;5061204;28;20109;-60
2024/01/03 05:38:09;;;;;;;1.38;0.70;;;10.50;99.90;;;;;;5042012;28;20068;-60
2024/01/03 05:40:34;;;;;;;1.02;0.50;;;10.50;99.90;;;;;;5059948;28;20417;-63
2024/01/03 05:43:00;;;;;;;2.45;0.85;;;10.50;1.00;;;;;;5059453;28;20060;-63
2024/01/03 05:45:25;;;;;;;2.30;0.60;;;10.50;1.00;;;;;;5040354;28;20090;-60
2024/01/03 05:47:51;;;;;;;2.05;0.70;;;10.40;1.00;;;;;;5059469;28;20048;-63
2024/01/03 05:50:17;;;;;;;2.47;0.73;;;10.50;1.00;;;;;;5058537;28;20123;-61
2024/01/03 05:52:43;;;;;;;1.77;0.65;;;10.40;1.00;;;;;;5058712;28;20029;-63
2024/01/03 05:55:08;;;;;;;1.65;0.60;;;10.40;1.00;;;;;;5055537;28;20376;-61
2024/01/03 05:57:34;;;;;;;0.60;0.50;;;10.40;1.00;;;;;;5041976;28;20025;-61
2024/01/03 06:00:01;;;;;;;2.40;0.70;;;10.40;1.00;;;;;;5054838;28;20043;-63
2024/01/03 06:02:26;;;;;;;0.98;0.63;;;10.50;1.00;;;;;;5059861;28;20025;-61
2024/01/03 06:04:52;;;;;;;1.80;0.75;;;10.40;1.00;;;;;;5058554;28;20042;-62
2024/01/03 06:07:17;;;;;;;1.73;0.70;;;10.40;1.00;;;;;;5055690;28;20031;-61
2024/01/03 06:09:44;;;;;;;1.77;0.70;;;10.40;1.00;;;;;;5059919;28;20083;-62
2024/01/03 06:12:09;;;;;;;0.95;0.32;;;10.40;1.00;;;;;;5057989;28;20380;-62
2024/01/03 06:14:35;;;;;;;2.50;0.93;;;10.40;1.00;;;;;;5058743;28;20447;-60
2024/01/03 06:17:00;;;;;;;2.65;1.08;;;10.40;1.00;;;;;;5059480;28;20029;-61
2024/01/03 06:19:26;;;;;;;3.25;0.70;;;10.40;1.00;;;;;;5057911;28;20032;-62
2024/01/03 06:21:51;;;;;;;1.83;0.73;;;10.40;1.00;;;;;;5059576;28;20409;-64
2024/01/03 06:24:17;;;;;;;2.97;0.80;;;10.40;1.00;;;;;;5039475;28;20033;-65
2024/01/03 06:26:43;;;;;;;3.08;1.00;;;10.40;1.00;;;;;;5058899;28;20313;-64
2024/01/03 06:29:08;;;;;;;3.53;0.95;;;10.40;1.00;;;;;;5055067;28;20036;-64
2024/01/03 06:31:34;;;;;;;3.03;0.90;;;10.40;1.00;;;;;;5058129;28;20139;-64
2024/01/03 06:34:00;;;;;;;2.90;0.98;;;10.40;1.50;;;;;;5060363;28;20058;-64
2024/01/03 06:36:25;;;;;;;2.92;0.93;;;10.30;36.50;;;;;;5062506;28;20054;-64
2024/01/03 06:38:51;;;;;;;2.95;1.00;;;10.30;64.60;;;;;;5064230;28;20040;-64
2024/01/03 06:41:17;;;;;;;1.90;0.70;;;10.30;99.90;;;;;;5062805;28;20067;-64
2024/01/03 06:43:44;;;;;;;1.85;0.85;;;10.20;99.90;;;;;;5063462;28;20111;-64
2024/01/03 06:46:09;;;;;;;4.25;1.30;;;10.20;99.90;;;;;;5060803;28;20110;-64
2024/01/03 06:48:35;;;;;;;4.07;1.02;;;10.30;99.90;;;;;;5062124;28;20709;-64
2024/01/03 06:51:02;;;;;;;4.05;1.10;;;10.30;99.90;;;;;;5059731;28;20039;-64
2024/01/03 06:53:31;;;;;;;4.03;1.10;;;10.30;99.90;;;;;;5061409;28;20036;-63
2024/01/03 06:55:57;;;;;;;5.03;1.10;;;10.30;99.90;;;;;;5062624;28;20093;-64
2024/01/03 06:58:23;;;;;;;3.63;1.00;;;10.30;99.90;;;;;;5060662;28;20040;-64
2024/01/03 07:00:49;;;;;;;3.13;0.90;;;10.30;99.90;;;;;;5063539;28;20051;-64
2024/01/03 07:03:18;;;;;;;5.72;1.48;;;10.30;99.90;;;;;;5063384;28;20485;-63
2024/01/03 07:05:44;;;;;;;5.90;1.50;;;10.30;99.90;;;;;;5061284;28;20086;-64
2024/01/03 07:08:10;;;;;;;4.95;1.60;;;10.20;99.90;;;;;;5060197;28;20036;-64
2024/01/03 07:10:36;;;;;;;5.18;1.48;;;10.20;99.90;;;;;;5061962;28;20084;-63
2024/01/03 07:13:02;;;;;;;4.60;1.25;;;10.10;99.90;;;;;;5061492;28;20029;-63
2024/01/03 07:15:28;;;;;;;5.68;1.55;;;10.20;99.90;;;;;;5063125;28;20029;-64
2024/01/03 07:17:59;;;;;;;4.50;1.50;;;10.20;99.90;;;;;;5047062;28;20048;-64
2024/01/03 07:20:25;;;;;;;5.10;1.40;;;10.30;99.90;;;;;;5060307;28;20043;-64
2024/01/03 07:22:50;;;;;;;4.68;1.52;;;10.30;99.90;;;;;;5061600;28;20348;-64
2024/01/03 07:25:17;;;;;;;4.55;1.38;;;10.30;99.90;;;;;;5045631;28;20556;-64
2024/01/03 07:27:42;;;;;;;5.72;1.60;;;10.30;99.90;;;;;;5061944;28;20403;-64
2024/01/03 07:30:09;;;;;;;5.60;1.70;;;10.30;99.90;;;;;;5060466;28;20024;-64
2024/01/03 07:32:35;;;;;;;5.90;1.52;;;10.20;99.90;;;;;;5061519;28;20040;-60
2024/01/03 07:35:00;;;;;;;3.05;1.10;;;10.10;99.90;;;;;;5059893;28;20470;-61
2024/01/03 07:37:27;;;;;;;6.30;1.80;;;10.10;99.90;;;;;;5062015;28;20403;-62
2024/01/03 07:39:52;;;;;;;5.68;1.42;;;10.20;99.90;;;;;;5062965;28;20132;-60
2024/01/03 07:42:18;;;;;;;6.57;1.52;;;10.10;99.90;;;;;;5060231;28;20124;-59
2024/01/03 07:44:43;;;;;;;3.78;1.17;;;10.10;99.90;;;;;;5061352;28;20041;-62
2024/01/03 07:47:11;;;;;;;3.38;0.90;;;10.10;99.90;;;;;;5041005;28;20105;-62
2024/01/03 07:49:39;;;;;;;1.55;0.70;;;10.00;64.00;;;;;;5058253;28;20044;-60
2024/01/03 07:52:05;;;;;;;2.17;0.77;;;10.00;34.00;;;;;;5059306;28;20033;-60
2024/01/03 07:54:31;;;;;;;1.15;0.43;;;9.90;1.00;;;;;;5059297;28;20047;-61
2024/01/03 07:56:57;;;;;;;1.05;0.32;;;9.90;1.00;;;;;;5060675;28;20056;-63
2024/01/03 07:59:24;;;;;;;1.23;0.50;;;9.90;1.00;;;;;;5059884;28;20056;-62
2024/01/03 08:01:50;;;;;;;0.52;0.35;;;9.90;1.00;;;;;;5061907;28;20072;-61
2024/01/03 08:04:18;;;;;;;1.05;0.40;;;9.90;1.00;;;;;;5037395;28;20044;-61
2024/01/03 08:06:44;;;;;;;0.88;0.45;;;9.80;1.00;;;;;;5060676;28;20470;-60
2024/01/03 08:09:10;;;;;;;0.98;0.47;;;9.90;1.00;;;;;;5058126;28;20032;-60
2024/01/03 08:11:36;;;;;;;0.88;0.45;;;9.80;1.00;;;;;;5057632;28;20098;-60
2024/01/03 08:14:02;;;;;;;2.10;0.38;;;9.80;1.00;;;;;;5058664;28;20576;-60
2024/01/03 08:16:27;;;;;;;1.13;0.32;;;9.80;1.00;;;;;;5061062;28;20036;-61
2024/01/03 08:18:53;;;;;;;1.38;0.57;;;9.80;1.00;;;;;;5061076;28;20325;-60
2024/01/03 08:21:19;;;;;;;0.50;0.30;;;9.80;1.00;;;;;;5059100;28;20040;-62
2024/01/03 08:23:45;;;;;;;1.92;0.47;;;9.70;1.00;;;;;;5051717;28;20564;-59
2024/01/03 08:26:12;;;;;;;1.25;0.50;;;9.70;93.60;;;;;;5060020;28;20032;-60
2024/01/03 08:28:41;;;;;;;1.23;0.30;;;9.70;96.30;;;;;;5061198;28;20036;-59
2024/01/03 08:31:13;;;;;;;1.65;0.68;;;9.70;99.90;;;;;;5056798;28;20710;-60
2024/01/03 08:33:38;;;;;;;4.22;0.60;;;9.70;99.90;;;;;;5061288;28;20035;-61
2024/01/03 08:36:06;;;;;;;2.50;0.60;;;9.70;99.90;;;;;;5060387;28;20032;-60
2024/01/03 08:38:32;;;;;;;1.70;0.63;;;9.70;99.90;;;;;;5061352;28;20518;-61
2024/01/03 08:40:57;;;;;;;2.33;0.70;;;9.80;99.90;;;;;;5056142;28;20116;-60
2024/01/03 08:43:23;;;;;;;3.00;0.68;;;9.90;99.90;;;;;;5057475;28;20052;-61
2024/01/03 08:45:48;;;;;;;1.85;0.65;;;9.90;99.90;;;;;;5059891;28;20029;-60
2024/01/03 08:48:14;;;;;;;2.78;0.70;;;9.90;49.60;;;;;;5057219;28;20047;-60
2024/01/03 08:50:40;;;;;;;3.03;0.90;;;9.90;34.30;;;;;;5060947;28;20028;-60
2024/01/03 08:53:06;;;;;;;2.35;0.77;;;10.00;13.90;;;;;;5059372;28;20062;-65
2024/01/03 08:55:31;;;;;;;2.63;0.80;;;10.00;1.00;;;;;;5061054;28;20033;-64
2024/01/03 08:57:58;;;;;;;1.73;0.80;;;10.00;24.10;;;;;;5060758;28;20309;-65
2024/01/03 09:00:26;;;;;;;2.80;0.52;;;10.00;1.00;;;;;;5040941;28;20838;-64
2024/01/03 09:02:59;;;;;;;3.90;1.23;;;10.00;1.00;;;;;;5061223;28;20154;-64
2024/01/03 09:05:25;;;;;;;3.75;0.73;;;10.00;1.00;;;;;;5057125;28;20373;-65
2024/01/03 09:07:51;;;;;;;3.60;1.10;;;10.10;1.00;;;;;;5059016;28;20384;-65
2024/01/03 09:10:17;;;;;;;3.67;1.13;;;10.10;1.00;;;;;;5058424;28;20062;-66
2024/01/03 09:12:43;;;;;;;1.92;0.80;;;10.10;1.00;;;;;;5060029;28;20024;-66
2024/01/03 09:15:09;;;;;;;3.80;1.20;;;10.10;1.00;;;;;;5058427;28;20027;-65
2024/01/03 09:17:34;;;;;;;3.67;1.05;;;10.20;1.00;;;;;;5041055;28;20491;-66
2024/01/03 09:20:00;;;;;;;2.90;1.10;;;10.20;1.00;;;;;;5051802;28;20037;-66
2024/01/03 09:22:25;;;;;;;3.70;1.23;;;10.20;1.00;;;;;;5060412;28;20270;-66
2024/01/03 09:24:51;;;;;;;4.65;1.20;;;10.20;1.00;;;;;;5057410;28;20157;-66
2024/01/03 09:27:17;;;;;;;7.70;1.13;;;10.20;1.00;;;;;;5056696;28;20039;-66
2024/01/03 09:29:43;;;;;;;5.22;1.60;;;10.30;1.00;;;;;;5056477;28;20070;-66
2024/01/03 09:32:09;;;;;;;4.85;1.48;;;10.30;1.00;;;;;;5058133;28;20036;-66
2024/01/03 09:34:39;;;;;;;6.35;1.52;;;10.30;1.00;;;;;;5054130;28;20025;-66
2024/01/03 09:37:06;;;;;;;5.72;1.48;;;10.30;1.00;;;;;;5057912;28;20462;-66
2024/01/03 09:39:32;;;;;;;6.70;1.48;;;10.30;1.00;;;;;;5059934;28;20028;-66
2024/01/03 09:41:58;;;;;;;6.72;1.60;;;10.30;1.00;;;;;;5060686;28;20416;-66
2024/01/03 09:44:26;;;;;;;4.72;1.20;;;10.30;1.00;;;;;;5053280;28;20423;-66
2024/01/03 09:46:51;;;;;;;4.60;1.40;;;10.30;1.00;;;;;;5058547;28;20106;-66
2024/01/03 09:49:18;;;;;;;2.97;1.00;;;10.30;1.00;;;;;;5055632;28;20044;-66
2024/01/03 09:51:46;;;;;;;4.60;1.23;;;10.40;1.00;;;;;;5033974;28;20372;-65
2024/01/03 09:54:12;;;;;;;4.15;1.35;;;10.40;1.00;;;;;;5058873;28;20416;-66
2024/01/03 09:56:40;;;;;;;2.78;1.00;;;10.50;1.00;;;;;;5061007;28;20472;-66
2024/01/03 09:59:06;;;;;;;4.45;1.25;;;10.50;99.90;;;;;;5058891;28;20503;-66
2024/01/03 10:01:32;;;;;;;3.95;1.20;;;10.60;99.90;;;;;;5061781;28;20462;-65
2024/01/03 10:03:58;;;;;;;3.10;1.13;;;10.70;99.90;;;;;;5061673;28;20052;-64
2024/01/03 10:06:24;;;;;;;4.53;1.20;;;10.70;99.90;;;;;;5059056;28;20480;-64
2024/01/03 10:09:03;;;;;;;3.65;0.95;;;10.70;99.90;;;;;;5058943;28;20043;-65
2024/01/03 10:11:29;;;;;;;3.75;1.20;;;10.80;30.40;;;;;;5058277;28;20597;-65
2024/01/03 10:13:56;;;;;;;2.47;1.23;;;10.70;66.20;;;;;;5059656;28;20048;-65
2024/01/03 10:16:26;;;;;;;4.55;1.23;;;10.70;99.90;;;;;;5057735;28;20040;-65
2024/01/03 10:19:13;;;;;;;4.78;1.50;;;10.70;99.90;;;;;;5056874;28;20959;-65
2024/01/03 10:21:52;;;;;;;4.25;1.15;;;10.70;25.70;;;;;;5055942;28;20051;-64
2024/01/03 10:24:19;;;;;;;3.70;1.27;;;10.70;99.90;;;;;;5058095;28;20443;-65
2024/01/03 10:26:45;;;;;;;6.80;1.65;;;10.70;99.90;;;;;;5042571;28;20032;-66
2024/01/03 10:29:17;;;;;;;5.97;1.40;;;10.80;99.90;;;;;;5044832;28;20155;-65
2024/01/03 10:31:43;;;;;;;5.63;1.50;;;10.80;74.90;;;;;;5059957;28;20530;-65
2024/01/03 10:34:15;;;;;;;4.82;1.25;;;10.80;99.90;;;;;;5059457;28;20024;-65
2024/01/03 10:36:42;;;;;;;3.97;1.60;;;10.80;11.70;;;;;;5041781;28;20056;-65
2024/01/03 10:39:13;;;;;;;7.22;1.73;;;10.80;94.40;;;;;;5059927;28;20036;-65
2024/01/03 10:41:41;;;;;;;5.57;1.60;;;10.90;63.90;;;;;;5058229;28;20044;-66
2024/01/03 10:44:08;;;;;;;4.05;1.17;;;10.90;21.10;;;;;;5054769;28;20123;-65
2024/01/03 10:46:34;;;;;;;4.90;1.42;;;11.00;1.00;;;;;;5050897;28;20041;-66
2024/01/03 10:49:01;;;;;;;4.65;1.40;;;11.00;1.00;;;;;;5041008;28;20117;-65
2024/01/03 10:51:35;;;;;;;3.67;1.30;;;11.10;1.00;;;;;;5061176;28;20432;-65
2024/01/03 10:54:02;;;;;;;6.40;1.67;;;11.10;1.00;;;;;;5057432;28;20090;-65
2024/01/03 10:56:29;;;;;;;4.00;1.20;;;11.10;1.00;;;;;;5059092;28;20041;-66
2024/01/03 10:58:55;;;;;;;4.15;1.40;;;11.00;44.80;;;;;;5059359;28;20048;-65
2024/01/03 11:01:28;;;;;;;4.10;1.15;;;11.00;51.50;;;;;;5041029;28;22812;-65
2024/01/03 11:04:06;;;;;;;3.38;1.08;;;11.00;72.40;;;;;;5038781;28;20127;-66
2024/01/03 11:06:56;;;;;;;4.43;1.33;;;11.00;99.90;;;;;;5057676;28;20191;-66
2024/01/03 11:09:25;;;;;;;0.80;0.35;;;10.90;99.90;;;;;;5058011;28;20116;-64
2024/01/03 11:12:11;;;;;;;0.00;0.00;;;10.90;99.90;;;;;;5057060;28;20399;-65
2024/01/03 11:14:37;;;;;;;0.00;0.00;;;10.90;99.90;;;;;;5058780;28;20033;-66
2024/01/03 11:17:03;;;;;;;2.67;1.02;;;10.80;99.90;;;;;;5061885;28;20136;-66
2024/01/03 11:19:31;;;;;;;0.32;0.13;;;10.70;1.00;;;;;;5061948;28;20032;-66
2024/01/03 11:21:59;;;;;;;0.00;0.00;;;10.70;1.00;;;;;;5060157;28;20147;-66
2024/01/03 11:24:27;;;;;;;0.08;0.03;;;10.80;99.90;;;;;;5059819;28;20036;-66
2024/01/03 11:26:56;;;;;;;2.45;0.90;;;10.70;1.00;;;;;;5059082;28;20040;-66
2024/01/03 11:29:34;;;;;;;0.00;0.00;;;10.70;99.90;;;;;;5057108;28;20526;-66
2024/01/03 11:32:04;;;;;;;0.00;0.00;;;10.80;99.90;;;;;;5062529;28;20086;-66
2024/01/03 11:34:37;;;;;;;0.00;0.00;;;10.90;99.90;;;;;;5062425;28;20035;-66
2024/01/03 11:37:04;;;;;;;0.00;0.00;;;10.90;99.90;;;;;;5061514;28;20081;-66
2024/01/03 11:39:35;;;;;;;0.00;0.00;;;10.90;80.80;;;;;;5059131;28;20040;-66
2024/01/03 11:42:02;;;;;;;0.00;0.00;;;10.90;1.00;;;;;;5061537;28;20048;-66
2024/01/03 11:44:27;;;;;;;0.00;0.00;;;10.90;1.00;;;;;;5062272;28;20123;-66
2024/01/03 11:47:00;;;;;;;0.00;0.00;;;10.90;1.00;;;;;;5063027;28;20123;-66
2024/01/03 11:49:26;;;;;;;0.00;0.00;;;11.00;1.00;;;;;;5061411;28;20058;-66
2024/01/03 11:51:52;;;;;;;2.95;0.95;;;11.10;1.00;;;;;;5061304;28;20044;-66
2024/01/03 11:54:18;;;;;;;4.90;1.70;;;11.00;1.00;;;;;;5045906;28;20506;-66
2024/01/03 11:56:44;;;;;;;8.07;2.20;;;11.10;1.00;;;;;;5063482;28;20040;-66
2024/01/03 11:59:10;;;;;;;5.72;1.58;;;11.10;1.00;;;;;;5059861;28;20067;-66
2024/01/03 12:01:35;;;;;;;4.28;1.48;;;11.10;1.00;;;;;;5061706;28;20285;-67
2024/01/03 12:04:11;;;;;;;2.35;0.45;;;11.00;1.00;;;;;;5060576;28;20415;-66
2024/01/03 12:06:37;;;;;;;5.00;1.30;;;11.00;1.00;;;;;;5061600;28;20360;-66
2024/01/03 12:09:03;;;;;;;5.65;1.58;;;11.00;1.00;;;;;;5061402;28;20511;-66
2024/01/03 12:11:30;;;;;;;1.75;0.70;;;11.00;1.00;;;;;;5062535;28;20087;-65
2024/01/03 12:13:56;;;;;;;3.95;1.13;;;11.00;1.00;;;;;;5062325;28;20044;-65
2024/01/03 12:16:22;;;;;;;4.38;0.98;;;11.00;1.00;;;;;;5059481;28;20063;-65
2024/01/03 12:18:51;;;;;;;7.60;1.40;;;10.90;1.00;;;;;;5059616;28;20298;-66
2024/01/03 12:21:18;;;;;;;4.97;1.48;;;10.80;1.00;;;;;;5059001;28;20645;-65
2024/01/03 12:23:59;;;;;;;6.50;1.60;;;10.70;1.00;;;;;;5061334;28;20395;-65
2024/01/03 12:26:25;;;;;;;4.43;1.23;;;10.70;1.00;;;;;;5042150;28;20024;-65
2024/01/03 12:28:54;;;;;;;4.43;1.27;;;10.80;76.00;;;;;;5060626;28;20055;-66
2024/01/03 12:31:20;;;;;;;4.30;1.15;;;10.80;99.90;;;;;;5055925;28;20067;-65
2024/01/03 12:33:46;;;;;;;3.13;0.98;;;10.80;99.90;;;;;;5043931;28;20032;-66
2024/01/03 12:36:12;;;;;;;3.20;1.20;;;10.80;99.90;;;;;;5061588;28;20035;-64
2024/01/03 12:38:38;;;;;;;2.83;0.75;;;10.80;99.90;;;;;;5062125;28;20033;-63
2024/01/03 12:41:03;;;;;;;0.50;0.13;;;10.70;99.90;;;;;;5060341;28;20094;-62
2024/01/03 12:43:30;;;;;;;4.32;1.38;;;10.70;1.00;;;;;;5061042;28;20028;-63
2024/01/03 12:45:55;;;;;;;2.42;0.80;;;10.60;1.00;;;;;;5061942;28;20071;-62
2024/01/03 12:48:21;;;;;;;0.00;0.00;;;10.60;1.00;;;;;;5057646;28;20075;-63
2024/01/03 12:50:47;;;;;;;1.90;0.63;;;10.50;13.00;;;;;;5058358;28;20048;-63
2024/01/03 12:53:13;;;;;;;3.42;1.02;;;10.20;1.00;;;;;;5057566;28;20134;-62
2024/01/03 12:55:38;;;;;;;0.10;0.05;;;10.30;99.90;;;;;;5060902;28;20351;-61
2024/01/03 12:58:04;;;;;;;0.00;0.00;;;10.00;99.90;;;;;;5057613;28;20037;-61